Katharina — V2DQ5 — position and weather

sailwx.info

Track history (hours):
 
Tides and Currents Weather Stations Pressure Air Temp Water Temp Dewpoint Dewpoint Depression Visibility Wind Speed Wind Dir Waves Ship Positions

Katharina

Last reported at 2016-Sep-23 04:30 UTC. Time now 2016-Sep-24 22:41 UTC.
Position N 63°06' E 006°56'.

Length 146 m; draft 7.4 m.

Type: Cargo ship. MMSI: 305305000.

Date/timePositionNaut miles runAvg speedWind from/ knotsBaromVisibWave heightAir tempDewpointWater temp
2016-Sep-23 04:30N 63°06' E 006°56'1212.9
2016-Sep-23 03:33N 63°12' E 007°19'1211.8
2016-Sep-23 02:33N 63°13' E 007°45'1211.6
2016-Sep-23 01:33N 63°01' E 007°42'3 3.3
2016-Sep-23 00:33N 62°58' E 007°44'0 0.0
2016-Sep-22 23:33N 62°58' E 007°44'0 0.0
2016-Sep-22 20:33N 62°58' E 007°44'49 6.1
2016-Sep-22 12:33N 63°46' E 008°02'17512.3
2016-Sep-21 22:19N 66°14' E 011°45'  
2016-Sep-17 13:16N 63°39' E 007°49'1115.0
2016-Sep-17 12:33N 63°30' E 007°38'2512.5
2016-Sep-17 10:33N 63°05' E 007°41'7 6.1
2016-Sep-17 09:28N 62°58' E 007°44'0 0.0
2016-Sep-17 08:31N 62°58' E 007°44'0 0.0
2016-Sep-17 07:31N 62°58' E 007°44'0 0.0
2016-Sep-17 05:31N 62°58' E 007°44'0 0.0
2016-Sep-17 04:31N 62°58' E 007°44'15 3.8
2016-Sep-17 00:34N 63°02' E 007°12'235 9.0
2016-Sep-15 22:33N 59°24' E 004°11'1413.8
2016-Sep-15 21:33N 59°10' E 004°11'1413.5
2016-Sep-15 20:33N 58°56' E 004°10'2813.8
2016-Sep-15 18:34N 58°29' E 004°09'8213.6
2016-Sep-15 12:31N 57°06' E 004°07'1413.4
2016-Sep-15 11:29N 56°53' E 004°07'13613.5
2016-Sep-15 01:27N 54°38' E 004°43'3813.3
2016-Sep-14 22:33N 54°02' E 005°04'1312.8
2016-Sep-14 21:33N 53°50' E 004°57'5313.2
2016-Sep-14 17:34N 53°01' E 004°22'1414.1
2016-Sep-14 16:33N 52°49' E 004°12'4113.6
2016-Sep-14 13:34N 52°09' E 003°54'1211.9
2016-Sep-14 12:33N 51°59' E 004°04'1 0.7
2016-Sep-14 10:33N 51°58' E 004°04'0 0.0
2016-Sep-14 09:32N 51°58' E 004°04'0 0.0
2016-Sep-14 08:33N 51°58' E 004°04'0 0.0
2016-Sep-14 07:32N 51°58' E 004°04'1 1.0
2016-Sep-14 06:33N 51°58' E 004°05'13 4.4
2016-Sep-14 03:33N 51°53' E 004°25'0 0.0
2016-Sep-13 22:33N 51°53' E 004°25'0 0.0
2016-Sep-13 20:33N 51°53' E 004°25'0 0.0
2016-Sep-13 18:33N 51°53' E 004°25'0 0.0
2016-Sep-13 17:33N 51°53' E 004°25'0 0.0
2016-Sep-13 16:33N 51°53' E 004°25'0 0.0
2016-Sep-13 11:33N 51°53' E 004°25'0 0.0
2016-Sep-13 09:33N 51°53' E 004°25'0 0.0
2016-Sep-13 07:33N 51°53' E 004°25'0 0.0
2016-Sep-13 06:33N 51°53' E 004°25'0 0.0
2016-Sep-13 04:33N 51°53' E 004°25'  
Track history (hours):
 
Tides and Currents Weather Stations Pressure Air Temp Water Temp Dewpoint Dewpoint Depression Visibility Wind Speed Wind Dir Waves Ship Positions

Katharina

Last reported at 2016-Sep-23 04:30 UTC. Time now 2016-Sep-24 22:41 UTC.
Position N 63°06' E 006°56'.

Length 146 m; draft 7.4 m.

Type: Cargo ship. MMSI: 305305000.

Date/timePositionNaut miles runAvg speedWind from/ knotsBaromVisibWave heightAir tempDewpointWater temp
2016-Sep-23 04:30N 63°06' E 006°56'1212.9
2016-Sep-23 03:33N 63°12' E 007°19'1211.8
2016-Sep-23 02:33N 63°13' E 007°45'1211.6
2016-Sep-23 01:33N 63°01' E 007°42'3 3.3
2016-Sep-23 00:33N 62°58' E 007°44'0 0.0
2016-Sep-22 23:33N 62°58' E 007°44'0 0.0
2016-Sep-22 20:33N 62°58' E 007°44'49 6.1
2016-Sep-22 12:33N 63°46' E 008°02'17512.3
2016-Sep-21 22:19N 66°14' E 011°45'  
2016-Sep-17 13:16N 63°39' E 007°49'1115.0
2016-Sep-17 12:33N 63°30' E 007°38'2512.5
2016-Sep-17 10:33N 63°05' E 007°41'7 6.1
2016-Sep-17 09:28N 62°58' E 007°44'0 0.0
2016-Sep-17 08:31N 62°58' E 007°44'0 0.0
2016-Sep-17 07:31N 62°58' E 007°44'0 0.0
2016-Sep-17 05:31N 62°58' E 007°44'0 0.0
2016-Sep-17 04:31N 62°58' E 007°44'15 3.8
2016-Sep-17 00:34N 63°02' E 007°12'235 9.0
2016-Sep-15 22:33N 59°24' E 004°11'1413.8
2016-Sep-15 21:33N 59°10' E 004°11'1413.5
2016-Sep-15 20:33N 58°56' E 004°10'2813.8
2016-Sep-15 18:34N 58°29' E 004°09'8213.6
2016-Sep-15 12:31N 57°06' E 004°07'1413.4
2016-Sep-15 11:29N 56°53' E 004°07'13613.5
2016-Sep-15 01:27N 54°38' E 004°43'3813.3
2016-Sep-14 22:33N 54°02' E 005°04'1312.8
2016-Sep-14 21:33N 53°50' E 004°57'5313.2
2016-Sep-14 17:34N 53°01' E 004°22'1414.1
2016-Sep-14 16:33N 52°49' E 004°12'4113.6
2016-Sep-14 13:34N 52°09' E 003°54'1211.9
2016-Sep-14 12:33N 51°59' E 004°04'1 0.7
2016-Sep-14 10:33N 51°58' E 004°04'0 0.0
2016-Sep-14 09:32N 51°58' E 004°04'0 0.0
2016-Sep-14 08:33N 51°58' E 004°04'0 0.0
2016-Sep-14 07:32N 51°58' E 004°04'1 1.0
2016-Sep-14 06:33N 51°58' E 004°05'13 4.4
2016-Sep-14 03:33N 51°53' E 004°25'0 0.0
2016-Sep-13 22:33N 51°53' E 004°25'0 0.0
2016-Sep-13 20:33N 51°53' E 004°25'0 0.0
2016-Sep-13 18:33N 51°53' E 004°25'0 0.0
2016-Sep-13 17:33N 51°53' E 004°25'0 0.0
2016-Sep-13 16:33N 51°53' E 004°25'0 0.0
2016-Sep-13 11:33N 51°53' E 004°25'0 0.0
2016-Sep-13 09:33N 51°53' E 004°25'0 0.0
2016-Sep-13 07:33N 51°53' E 004°25'0 0.0
2016-Sep-13 06:33N 51°53' E 004°25'0 0.0
2016-Sep-13 04:33N 51°53' E 004°25'  

Dump ship's entire track history